West Bend, WI

7:30 AM CDT on March 25, 2017 (GMT -0500)
West Bend Municipal

Weather History for KETB - November, 2013

Change the Weather History Date:

Saturday, November 16, 2013

  Actual Average Record
Temperature  
Mean Temperature 47 °F -  
Max Temperature 59 °F 44 °F 69 °F (1931)
Min Temperature 35 °F 28 °F -1 °F (1933)
Degree Days  
Heating Degree Days 18    
Moisture  
Dew Point 43 °F    
Average Humidity 87    
Maximum Humidity 94    
Minimum Humidity 77    
Precipitation  
Precipitation 0.01 in - - ()
Sea Level Pressure  
Sea Level Pressure 29.69 in    
Wind  
Wind Speed 8 mph (South)    
Max Wind Speed 21 mph    
Max Gust Speed 33 mph    
Visibility 7 miles    
Events Rain    
Averages and records for this station are not official NWS values.
T = Trace of Precipitation, MM = Missing Value Source: NWS Daily Summary

Daily Weather History Graph

Daily Weather History Graph

Search for Another Location

Airport or City:

Trip Planner

Search our weather history database for the weather conditions in past years. The results will help you decide how hot, cold, wet, or windy it might be!

Date:

Astronomy

Nov. 16, 2013 Rise Set
Actual Time 6:47 AM CST 4:26 PM CST
Civil Twilight 6:16 AM CST 4:57 PM CST
Nautical Twilight 5:41 AM CST 5:32 PM CST
Astronomical Twilight 5:08 AM CST 6:06 PM CST
Moon 4:02 PM CST (11/16) 5:42 AM CST (11/16)
Length of Visible Light 10h 40m
Length of Day
9h 39m
Waxing Gibbous, 99% of the Moon is Illuminated
Nov 16
Waxing Gibbous
Nov 17
Full
Nov 25
Last Quarter
Dec 2
New
Dec 9
First Quarter

Hourly Weather History & Observations

Time (CST) Temp. Windchill Dew Point Humidity Pressure Visibility Wind Dir Wind Speed Gust Speed Precip Events Conditions
12:15 AM 37.4 °F 32.8 °F 32.0 °F 81% 29.89 in 10.0 mi South 5.8 mph - N/A   Clear
12:35 AM 37.4 °F 32.8 °F 32.0 °F 81% 29.88 in 10.0 mi South 5.8 mph - N/A   Clear
12:55 AM 37.4 °F 32.1 °F 32.0 °F 81% 29.88 in 10.0 mi South 6.9 mph - N/A   Clear
1:15 AM 37.4 °F 32.8 °F 32.0 °F 81% 29.88 in 10.0 mi South 5.8 mph - N/A   Clear
1:35 AM 37.4 °F 33.8 °F 32.0 °F 81% 29.88 in 10.0 mi South 4.6 mph - N/A   Clear
1:55 AM 37.4 °F 32.8 °F 32.0 °F 81% 29.88 in 10.0 mi South 5.8 mph - N/A   Clear
2:15 AM 37.4 °F 33.8 °F 32.0 °F 81% 29.88 in 10.0 mi South 4.6 mph - N/A   Clear
2:35 AM 35.6 °F 31.7 °F 32.0 °F 87% 29.88 in 10.0 mi South 4.6 mph - N/A   Clear
2:55 AM 35.6 °F 32.8 °F 32.0 °F 87% 29.88 in 10.0 mi South 3.5 mph - N/A   Clear
3:15 AM 35.6 °F - 32.0 °F 87% 29.88 in 10.0 mi Calm Calm - N/A   Clear
3:35 AM 35.6 °F 32.8 °F 32.0 °F 87% 29.88 in 10.0 mi SSE 3.5 mph - N/A   Clear
3:55 AM 35.6 °F 32.8 °F 32.0 °F 87% 29.87 in 10.0 mi SE 3.5 mph - N/A   Clear
4:15 AM 35.6 °F 32.8 °F 32.0 °F 87% 29.86 in 10.0 mi SSE 3.5 mph - N/A   Clear
4:35 AM 35.6 °F - 32.0 °F 87% 29.86 in 10.0 mi Calm Calm - N/A   Clear
4:55 AM 35.6 °F 32.8 °F 32.0 °F 87% 29.86 in 10.0 mi SE 3.5 mph - N/A   Clear
5:15 AM 35.6 °F 31.7 °F 32.0 °F 87% 29.85 in 10.0 mi SE 4.6 mph - N/A   Scattered Clouds
5:35 AM 37.4 °F 32.8 °F 33.8 °F 87% 29.85 in 10.0 mi SSE 5.8 mph - N/A   Overcast
5:55 AM 37.4 °F 33.8 °F 33.8 °F 87% 29.85 in 10.0 mi SSE 4.6 mph - N/A   Overcast
6:15 AM 37.4 °F 32.1 °F 35.6 °F 93% 29.84 in 7.0 mi SSE 6.9 mph - N/A   Overcast
6:35 AM 37.4 °F 32.1 °F 35.6 °F 93% 29.83 in 7.0 mi SSE 6.9 mph - N/A   Overcast
6:55 AM 39.2 °F 35.0 °F 35.6 °F 87% 29.83 in 3.0 mi SSE 5.8 mph - N/A   Overcast
7:15 AM 39.2 °F 34.2 °F 37.4 °F 93% 29.82 in 1.0 mi SSE 6.9 mph - N/A   Overcast
7:35 AM 39.2 °F 35.0 °F 37.4 °F 93% 29.82 in 0.8 mi SSE 5.8 mph - N/A   Overcast
7:55 AM 41.0 °F 36.4 °F 37.4 °F 87% 29.80 in 0.8 mi SE 6.9 mph - N/A   Overcast
8:15 AM 41.0 °F 36.4 °F 39.2 °F 93% 29.80 in 0.8 mi SE 6.9 mph - N/A   Overcast
8:35 AM 41.0 °F 36.4 °F 39.2 °F 93% 29.79 in 0.8 mi SSE 6.9 mph - N/A   Overcast
8:55 AM 42.8 °F 38.0 °F 41.0 °F 93% 29.79 in 0.8 mi SSE 8.1 mph - N/A   Overcast
9:15 AM 42.8 °F 38.6 °F 41.0 °F 93% 29.78 in 1.0 mi SSE 6.9 mph - N/A   Overcast
9:35 AM 44.6 °F 39.2 °F 42.8 °F 93% 29.77 in 1.2 mi SSE 10.4 mph - N/A   Overcast
9:55 AM 44.6 °F 40.2 °F 42.8 °F 93% 29.76 in 1.5 mi South 8.1 mph - N/A   Overcast
10:15 AM 44.6 °F 38.8 °F 42.8 °F 93% 29.75 in 2.0 mi SSE 11.5 mph 19.6 mph N/A   Overcast
10:35 AM 46.4 °F 41.1 °F 42.8 °F 87% 29.75 in 2.5 mi South 11.5 mph 16.1 mph N/A   Overcast
10:55 AM 46.4 °F 41.5 °F 44.6 °F 93% 29.74 in 2.5 mi South 10.4 mph 19.6 mph N/A   Overcast
11:15 AM 46.4 °F 41.5 °F 44.6 °F 93% 29.72 in 1.8 mi South 10.4 mph - N/A   Overcast
11:35 AM 46.4 °F 42.9 °F 44.6 °F 93% 29.71 in 2.0 mi South 6.9 mph - N/A   Overcast
11:55 AM 46.4 °F 41.5 °F 44.6 °F 93% 29.71 in 1.8 mi South 10.4 mph 17.3 mph N/A   Overcast
12:15 PM 46.4 °F 41.1 °F 44.6 °F 93% 29.69 in 1.8 mi SSE 11.5 mph 16.1 mph N/A   Drizzle
12:35 PM 48.2 °F - 44.6 °F 87% 29.67 in 1.8 mi SSE 12.7 mph 19.6 mph N/A   Light Drizzle
12:55 PM 48.2 °F - 46.4 °F 93% 29.65 in 2.0 mi South 11.5 mph - N/A   Overcast
1:15 PM 50.0 °F - 46.4 °F 87% 29.67 in 3.0 mi South 11.5 mph 18.4 mph N/A   Overcast
1:35 PM 50.0 °F - 46.4 °F 87% 29.66 in 4.0 mi South 16.1 mph 23.0 mph N/A   Overcast
1:55 PM 50.0 °F - 46.4 °F 87% 29.65 in 4.0 mi South 9.2 mph 19.6 mph N/A   Overcast
2:15 PM 50.0 °F - 46.4 °F 87% 29.63 in 7.0 mi SSE 13.8 mph 20.7 mph N/A   Overcast
2:35 PM 50.0 °F - 46.4 °F 87% 29.62 in 7.0 mi South 10.4 mph 19.6 mph N/A Rain Light Rain
2:55 PM 51.8 °F - 46.4 °F 82% 29.61 in 7.0 mi SSE 11.5 mph 19.6 mph 0.01 in   Light Drizzle
3:15 PM 51.8 °F - 46.4 °F 82% 29.61 in 5.0 mi SSE 11.5 mph 20.7 mph N/A Rain Rain
3:35 PM 51.8 °F - 46.4 °F 82% 29.59 in 7.0 mi South 12.7 mph 18.4 mph N/A   Light Drizzle
3:55 PM 51.8 °F - 48.2 °F 88% 29.57 in 7.0 mi SSE 10.4 mph 23.0 mph N/A   Overcast
4:15 PM 51.8 °F - 48.2 °F 88% 29.55 in 5.0 mi SSE 12.7 mph 16.1 mph N/A   Overcast
4:35 PM 51.8 °F - 48.2 °F 88% 29.55 in 7.0 mi SSE 12.7 mph 20.7 mph N/A   Overcast
4:55 PM 51.8 °F - 48.2 °F 88% 29.55 in 7.0 mi SSE 13.8 mph 24.2 mph N/A Rain Light Rain
5:15 PM 53.6 °F - 50.0 °F 88% 29.55 in 7.0 mi South 11.5 mph 17.3 mph N/A   Light Drizzle
5:35 PM 53.6 °F - 50.0 °F 88% 29.53 in 7.0 mi SSE 12.7 mph 17.3 mph N/A Rain Light Rain
5:55 PM 51.8 °F - 50.0 °F 94% 29.53 in 7.0 mi SSE 10.4 mph 17.3 mph N/A Rain Light Rain
6:15 PM 51.8 °F - 50.0 °F 94% 29.52 in 5.0 mi SSE 9.2 mph - N/A Rain Rain
6:35 PM 51.8 °F - 48.2 °F 88% 29.52 in 5.0 mi SSE 6.9 mph - N/A Rain Light Rain
6:55 PM 53.6 °F - 50.0 °F 88% 29.51 in 10.0 mi South 13.8 mph 18.4 mph N/A   Overcast
7:15 PM 53.6 °F - 50.0 °F 88% 29.51 in 10.0 mi South 12.7 mph 23.0 mph N/A   Overcast
7:35 PM 55.4 °F - 50.0 °F 82% 29.51 in 10.0 mi South 12.7 mph 25.3 mph N/A   Overcast
7:55 PM 55.4 °F - 50.0 °F 82% 29.51 in 10.0 mi South 19.6 mph 28.8 mph N/A   Overcast
8:15 PM 55.4 °F - 51.8 °F 88% 29.51 in 10.0 mi SSW 17.3 mph 26.5 mph N/A Rain Light Rain
8:35 PM 55.4 °F - 51.8 °F 88% 29.51 in 10.0 mi South 17.3 mph 28.8 mph N/A   Light Drizzle
8:55 PM 55.4 °F - 51.8 °F 88% 29.51 in 10.0 mi SSW 20.7 mph 33.4 mph N/A   Overcast
9:15 PM 55.4 °F - 51.8 °F 88% 29.51 in 10.0 mi SSW 17.3 mph 24.2 mph N/A   Overcast
9:35 PM 55.4 °F - 51.8 °F 88% 29.51 in 10.0 mi SSW 13.8 mph 18.4 mph N/A   Overcast
9:55 PM 55.4 °F - 51.8 °F 88% 29.51 in 10.0 mi SSW 15.0 mph 20.7 mph N/A   Overcast
10:15 PM 57.2 °F - 51.8 °F 82% 29.50 in 10.0 mi SSW 13.8 mph 21.9 mph N/A   Overcast
10:35 PM 57.2 °F - 51.8 °F 82% 29.50 in 10.0 mi SSW 11.5 mph 23.0 mph N/A   Overcast
10:55 PM 57.2 °F - 51.8 °F 82% 29.50 in 10.0 mi SSW 15.0 mph 19.6 mph N/A   Overcast
11:15 PM 57.2 °F - 51.8 °F 82% 29.50 in 10.0 mi SSW 11.5 mph 20.7 mph N/A   Overcast
11:35 PM 59.0 °F - 51.8 °F 77% 29.50 in 10.0 mi SSW 11.5 mph 23.0 mph N/A   Overcast
11:55 PM 57.2 °F - 51.8 °F 82% 29.50 in 10.0 mi SSW 15.0 mph 23.0 mph N/A   Overcast